Time;durP1;ratioP1;P1;durP2;ratioP2;P2;SDS_P1;SDS_P2;PMS_P1;PMS_P2;Temp;Humidity;BMP_temperature;BMP_pressure;BME280_temperature;BME280_humidity;BME280_pressure;Samples;Min_cycle;Max_cycle;Signal;HPM_P1;HPM_P2
2022/06/23 00:01:58;;;;;;;5.78;5.18;;;;;;;;;;5036574;28;20049;-86
2022/06/23 00:04:26;;;;;;;6.32;5.22;;;;;;;;;;5036123;28;20041;-86
2022/06/23 00:07:07;;;;;;;5.72;5.00;;;;;;;;;;5054611;28;20037;-86
2022/06/23 00:09:39;;;;;;;6.25;5.20;;;;;;;;;;5036517;28;20488;-86
2022/06/23 00:12:23;;;;;;;9.90;5.40;;;;;;;;;;5032058;28;20049;-86
2022/06/23 00:14:52;;;;;;;6.03;5.10;;;;;;;;;;5016843;28;20043;-86
2022/06/23 00:17:23;;;;;;;6.32;5.60;;;;;;;;;;5016612;28;20460;-86
2022/06/23 00:19:49;;;;;;;6.05;5.30;;;;;;;;;;5034478;28;20382;-86
2022/06/23 00:22:17;;;;;;;8.80;5.70;;;;;;;;;;5017018;28;20459;-86
2022/06/23 00:24:45;;;;;;;8.40;6.13;;;;;;;;;;5034124;28;20052;-86
2022/06/23 00:27:16;;;;;;;7.50;6.20;;;;;;;;;;5048315;28;20094;-86
2022/06/23 00:29:44;;;;;;;7.15;5.88;;;;;;;;;;5054087;28;20102;-86
2022/06/23 00:32:10;;;;;;;9.15;6.22;;;;;;;;;;5018031;28;20049;-86
2022/06/23 00:34:38;;;;;;;7.43;6.05;;;;;;;;;;5035830;28;20345;-86
2022/06/23 00:37:07;;;;;;;7.55;6.15;;;;;;;;;;5036348;28;20553;-86
2022/06/23 00:39:52;;;;;;;8.50;7.00;;;;;;;;;;5053815;28;20060;-86
2022/06/23 00:42:27;;;;;;;7.57;6.25;;;;;;;;;;5041899;28;20049;-86
2022/06/23 00:45:08;;;;;;;8.40;6.22;;;;;;;;;;5018750;28;20106;-85
2022/06/23 00:47:34;;;;;;;9.15;7.38;;;;;;;;;;5054058;28;20044;-86
2022/06/23 00:50:00;;;;;;;8.75;7.05;;;;;;;;;;5038088;28;20053;-87
2022/06/23 00:52:26;;;;;;;8.10;6.95;;;;;;;;;;5052339;28;20045;-86
2022/06/23 00:54:54;;;;;;;7.47;6.70;;;;;;;;;;5053555;28;20049;-86
2022/06/23 00:57:38;;;;;;;7.88;6.93;;;;;;;;;;5053434;28;20081;-86
2022/06/23 01:00:18;;;;;;;9.57;7.05;;;;;;;;;;5052945;28;20144;-85
2022/06/23 01:02:47;;;;;;;9.20;7.30;;;;;;;;;;5052320;28;20051;-85
2022/06/23 01:05:16;;;;;;;8.88;7.07;;;;;;;;;;5036304;28;20048;-87
2022/06/23 01:07:57;;;;;;;8.40;7.25;;;;;;;;;;5051948;28;20049;-85
2022/06/23 01:10:32;;;;;;;7.82;7.03;;;;;;;;;;5051152;28;20094;-85
2022/06/23 01:13:07;;;;;;;8.77;7.28;;;;;;;;;;5053288;28;20041;-86
2022/06/23 01:15:36;;;;;;;8.40;7.50;;;;;;;;;;5052395;28;20112;-85
2022/06/23 01:18:18;;;;;;;8.93;7.65;;;;;;;;;;5052691;28;21595;-85
2022/06/23 01:20:52;;;;;;;9.23;7.03;;;;;;;;;;5044873;28;20045;-86
2022/06/23 01:23:31;;;;;;;8.38;6.95;;;;;;;;;;5031968;28;20065;-86
2022/06/23 01:26:09;;;;;;;9.18;7.18;;;;;;;;;;5035706;28;20427;-86
2022/06/23 01:28:37;;;;;;;8.35;7.15;;;;;;;;;;5052081;28;20098;-86
2022/06/23 01:31:06;;;;;;;10.45;7.97;;;;;;;;;;5051428;28;20044;-86
2022/06/23 01:33:40;;;;;;;8.60;7.22;;;;;;;;;;5050216;28;20037;-86
2022/06/23 01:36:06;;;;;;;10.63;7.53;;;;;;;;;;5034901;28;20053;-86
2022/06/23 01:38:50;;;;;;;8.93;7.35;;;;;;;;;;5051842;28;20145;-85
2022/06/23 01:41:22;;;;;;;8.70;7.05;;;;;;;;;;5052494;28;20037;-86
2022/06/23 01:44:11;;;;;;;10.15;7.30;;;;;;;;;;5052853;28;20076;-86
2022/06/23 01:46:39;;;;;;;9.40;7.18;;;;;;;;;;5042558;28;20102;-86
2022/06/23 01:49:28;;;;;;;11.85;7.63;;;;;;;;;;5051062;28;20045;-86
2022/06/23 01:51:55;;;;;;;9.13;7.40;;;;;;;;;;5034199;28;20044;-85
2022/06/23 01:54:21;;;;;;;9.70;7.32;;;;;;;;;;5051369;28;20053;-86
2022/06/23 01:56:59;;;;;;;10.75;7.28;;;;;;;;;;5051323;28;20050;-86
2022/06/23 01:59:35;;;;;;;9.23;7.75;;;;;;;;;;5051094;28;20041;-86
2022/06/23 02:02:19;;;;;;;10.67;7.97;;;;;;;;;;5048769;28;20041;-86
2022/06/23 02:05:09;;;;;;;9.43;7.28;;;;;;;;;;5051130;28;20828;-85
2022/06/23 02:07:41;;;;;;;12.23;8.07;;;;;;;;;;5043763;28;20057;-85
2022/06/23 02:10:10;;;;;;;13.38;8.13;;;;;;;;;;5050242;28;20045;-85
2022/06/23 02:12:43;;;;;;;9.07;7.80;;;;;;;;;;5052631;28;20098;-86
2022/06/23 02:15:24;;;;;;;12.23;8.05;;;;;;;;;;5034344;28;20049;-86
2022/06/23 02:18:09;;;;;;;11.55;8.27;;;;;;;;;;5033980;28;20052;-86
2022/06/23 02:20:35;;;;;;;10.55;7.68;;;;;;;;;;5047093;28;20042;-86
2022/06/23 02:23:20;;;;;;;10.88;7.68;;;;;;;;;;5038976;28;20488;-86
2022/06/23 02:25:52;;;;;;;11.23;8.10;;;;;;;;;;5051043;28;20045;-86
2022/06/23 02:28:24;;;;;;;11.40;7.90;;;;;;;;;;5051179;28;20471;-86
2022/06/23 02:31:11;;;;;;;14.52;8.45;;;;;;;;;;5051422;28;20538;-85
2022/06/23 02:33:37;;;;;;;;;;;;;;;;;;5051423;28;20049;-86
2022/06/23 02:36:29;;;;;;;10.80;8.43;;;;;;;;;;5053083;28;19943;-86
2022/06/23 02:38:57;;;;;;;12.13;8.57;;;;;;;;;;5016322;28;20045;-86
2022/06/23 02:41:27;;;;;;;13.02;8.75;;;;;;;;;;5053754;28;20048;-86
2022/06/23 02:44:08;;;;;;;13.00;8.38;;;;;;;;;;5054700;28;20077;-86
2022/06/23 02:46:44;;;;;;;11.77;7.88;;;;;;;;;;5054743;28;20053;-86
2022/06/23 02:49:10;;;;;;;11.40;8.27;;;;;;;;;;5055933;28;20111;-85
2022/06/23 02:51:36;;;;;;;12.10;8.13;;;;;;;;;;5055369;28;20048;-86
2022/06/23 02:54:10;;;;;;;10.75;8.10;;;;;;;;;;5037033;28;20051;-86
2022/06/23 02:56:55;;;;;;;11.43;8.65;;;;;;;;;;5038086;28;20128;-85
2022/06/23 02:59:33;;;;;;;13.10;8.82;;;;;;;;;;5037997;28;20076;-85
2022/06/23 03:02:02;;;;;;;10.40;8.63;;;;;;;;;;5035963;28;20048;-85
2022/06/23 03:05:00;;;;;;;12.18;8.52;;;;;;;;;;5055096;28;20040;-86
2022/06/23 03:07:30;;;;;;;12.27;8.77;;;;;;;;;;4994390;28;20124;-86
2022/06/23 03:10:04;;;;;;;13.82;8.90;;;;;;;;;;5037580;28;20049;-86
2022/06/23 03:12:35;;;;;;;14.02;9.27;;;;;;;;;;5037140;28;20052;-86
2022/06/23 03:15:03;;;;;;;13.40;9.13;;;;;;;;;;5037384;28;20049;-85
2022/06/23 03:17:50;;;;;;;13.85;9.70;;;;;;;;;;5037330;28;20106;-86
2022/06/23 03:20:23;;;;;;;11.93;9.15;;;;;;;;;;5036601;28;20041;-85
2022/06/23 03:22:49;;;;;;;12.80;9.55;;;;;;;;;;5036893;28;20496;-86
2022/06/23 03:25:27;;;;;;;13.05;9.57;;;;;;;;;;5037399;28;20070;-86
2022/06/23 03:27:53;;;;;;;11.43;8.80;;;;;;;;;;5055188;28;20048;-86
2022/06/23 03:30:52;;;;;;;17.60;9.95;;;;;;;;;;5054597;28;20041;-85
2022/06/23 03:33:23;;;;;;;13.40;9.63;;;;;;;;;;4981826;28;20089;-85
2022/06/23 03:36:00;;;;;;;12.57;9.45;;;;;;;;;;4993539;28;20409;-86
2022/06/23 03:41:38;;;;;;;13.43;9.73;;;;;;;;;;4992664;28;20053;-85
2022/06/23 03:44:07;;;;;;;13.30;10.27;;;;;;;;;;4957776;28;20055;-86
2022/06/23 03:46:40;;;;;;;12.25;9.50;;;;;;;;;;4973968;28;20420;-86
2022/06/23 03:49:24;;;;;;;12.48;9.60;;;;;;;;;;4957768;28;20530;-85
2022/06/23 03:51:52;;;;;;;12.25;9.25;;;;;;;;;;4988135;28;20102;-86
2022/06/23 03:54:21;;;;;;;12.75;10.07;;;;;;;;;;5012769;28;20081;-86
2022/06/23 03:56:50;;;;;;;13.80;9.90;;;;;;;;;;5012450;28;20192;-86
2022/06/23 03:59:16;;;;;;;14.52;10.27;;;;;;;;;;4996351;28;20487;-86
2022/06/23 04:01:49;;;;;;;11.48;9.40;;;;;;;;;;5011846;28;20054;-85
2022/06/23 04:04:17;;;;;;;14.00;9.95;;;;;;;;;;5012270;28;20139;-85
2022/06/23 04:06:46;;;;;;;13.55;9.40;;;;;;;;;;4995575;28;20704;-85
2022/06/23 04:09:20;;;;;;;14.63;10.00;;;;;;;;;;5018538;28;20157;-86
2022/06/23 04:11:49;;;;;;;15.38;10.43;;;;;;;;;;5044539;28;20559;-85
2022/06/23 04:14:18;;;;;;;13.10;9.70;;;;;;;;;;5052858;28;20036;-85
2022/06/23 04:16:46;;;;;;;15.68;11.00;;;;;;;;;;5052935;28;20439;-85
2022/06/23 04:19:17;;;;;;;16.30;10.75;;;;;;;;;;5053813;28;20403;-86
2022/06/23 04:21:46;;;;;;;16.65;10.45;;;;;;;;;;5052099;28;20053;-85
2022/06/23 04:24:16;;;;;;;16.70;10.32;;;;;;;;;;5054640;28;20069;-85
2022/06/23 04:26:43;;;;;;;15.65;10.63;;;;;;;;;;5052283;28;20174;-86
2022/06/23 04:29:25;;;;;;;15.60;10.90;;;;;;;;;;5052728;28;20131;-85
2022/06/23 04:31:53;;;;;;;13.90;10.15;;;;;;;;;;5053090;28;20076;-85
2022/06/23 04:34:28;;;;;;;15.48;11.35;;;;;;;;;;5053660;28;20040;-85
2022/06/23 04:36:54;;;;;;;16.13;10.95;;;;;;;;;;5051790;28;20052;-86
2022/06/23 04:39:26;;;;;;;14.90;10.00;;;;;;;;;;5053834;28;20044;-86
2022/06/23 04:42:01;;;;;;;15.43;10.38;;;;;;;;;;5051111;28;20290;-86
2022/06/23 04:44:28;;;;;;;15.52;11.00;;;;;;;;;;5053491;28;20044;-86
2022/06/23 04:46:57;;;;;;;16.25;10.77;;;;;;;;;;5051725;28;20082;-86
2022/06/23 04:49:25;;;;;;;13.18;10.40;;;;;;;;;;5051708;28;20124;-86
2022/06/23 04:51:56;;;;;;;14.70;10.25;;;;;;;;;;5051931;28;20466;-86
2022/06/23 04:54:25;;;;;;;19.30;9.93;;;;;;;;;;5053862;28;20048;-86
2022/06/23 04:57:10;;;;;;;12.68;9.68;;;;;;;;;;5053257;28;20515;-86
2022/06/23 04:59:41;;;;;;;13.52;9.43;;;;;;;;;;5035503;28;20049;-85
2022/06/23 05:02:19;;;;;;;12.35;9.82;;;;;;;;;;5052209;28;20045;-86
2022/06/23 05:04:50;;;;;;;12.65;10.05;;;;;;;;;;5033302;28;20056;-87
2022/06/23 05:07:26;;;;;;;14.10;9.75;;;;;;;;;;5035583;28;20049;-87
2022/06/23 05:09:54;;;;;;;12.90;10.35;;;;;;;;;;5035447;28;20487;-87
2022/06/23 05:12:24;;;;;;;12.00;8.70;;;;;;;;;;5051903;28;20048;-87
2022/06/23 05:14:52;;;;;;;11.65;9.40;;;;;;;;;;5035295;28;20480;-87
2022/06/23 05:17:21;;;;;;;12.13;9.25;;;;;;;;;;5037179;28;20044;-87
2022/06/23 05:19:48;;;;;;;10.73;9.13;;;;;;;;;;5031825;28;20052;-86
2022/06/23 05:22:46;;;;;;;11.55;8.27;;;;;;;;;;5034436;28;20136;-87
2022/06/23 05:25:15;;;;;;;10.13;8.70;;;;;;;;;;5004317;28;20057;-86
2022/06/23 05:27:44;;;;;;;10.20;8.80;;;;;;;;;;5053272;28;20037;-87
2022/06/23 05:30:26;;;;;;;9.73;8.25;;;;;;;;;;5034903;28;20037;-87
2022/06/23 05:33:04;;;;;;;11.57;8.38;;;;;;;;;;5034095;28;20052;-87
2022/06/23 05:35:36;;;;;;;9.32;8.35;;;;;;;;;;5034438;28;20052;-87
2022/06/23 05:38:17;;;;;;;10.05;7.93;;;;;;;;;;5053190;28;20068;-87
2022/06/23 05:40:52;;;;;;;10.52;8.07;;;;;;;;;;5035658;28;20048;-87
2022/06/23 05:43:18;;;;;;;9.68;7.82;;;;;;;;;;5032534;28;20051;-89
2022/06/23 05:45:59;;;;;;;9.95;8.70;;;;;;;;;;5051232;28;20045;-87
2022/06/23 05:48:29;;;;;;;10.40;8.30;;;;;;;;;;5035995;28;20055;-86
2022/06/23 05:51:11;;;;;;;9.23;8.02;;;;;;;;;;5052842;28;20056;-86
2022/06/23 05:53:41;;;;;;;10.00;8.40;;;;;;;;;;5035266;28;20500;-89
2022/06/23 05:56:13;;;;;;;10.75;8.13;;;;;;;;;;5052592;28;20108;-86
2022/06/23 05:58:44;;;;;;;9.27;8.02;;;;;;;;;;5034951;28;20049;-86
2022/06/23 06:01:13;;;;;;;11.57;8.25;;;;;;;;;;5033989;28;20111;-87
2022/06/23 06:04:05;;;;;;;10.32;8.35;;;;;;;;;;5051893;28;20080;-85
2022/06/23 06:06:32;;;;;;;10.80;7.82;;;;;;;;;;5003098;28;20049;-86
2022/06/23 06:11:47;;;;;;;10.45;8.30;;;;;;;;;;5054210;28;20045;-86
2022/06/23 06:14:16;;;;;;;9.15;8.25;;;;;;;;;;5037958;28;20045;-86
2022/06/23 06:16:42;;;;;;;10.52;8.45;;;;;;;;;;5054858;28;20076;-86
2022/06/23 06:19:13;;;;;;;13.25;9.00;;;;;;;;;;5019790;28;20485;-86
2022/06/23 06:21:39;;;;;;;12.68;8.90;;;;;;;;;;5018390;28;20092;-86
2022/06/23 06:24:23;;;;;;;9.20;8.23;;;;;;;;;;5054478;28;20048;-86
2022/06/23 06:26:51;;;;;;;10.63;8.65;;;;;;;;;;5038563;28;20052;-85
2022/06/23 06:29:17;;;;;;;10.65;9.05;;;;;;;;;;5056038;28;20041;-86
2022/06/23 06:31:45;;;;;;;10.98;8.70;;;;;;;;;;5037705;28;20437;-85
2022/06/23 06:34:14;;;;;;;10.68;8.63;;;;;;;;;;5038076;28;20114;-86
2022/06/23 06:36:44;;;;;;;11.20;9.07;;;;;;;;;;5036906;28;20049;-85
2022/06/23 06:39:17;;;;;;;11.18;9.25;;;;;;;;;;5037924;28;20044;-86
2022/06/23 06:41:46;;;;;;;9.77;8.68;;;;;;;;;;5055281;28;20037;-88
2022/06/23 06:44:13;;;;;;;10.25;9.02;;;;;;;;;;5039675;28;20136;-89
2022/06/23 06:46:40;;;;;;;9.77;8.77;;;;;;;;;;5055856;28;20474;-87
2022/06/23 06:49:07;;;;;;;10.98;8.90;;;;;;;;;;5056561;28;20123;-91
2022/06/23 06:51:33;;;;;;;9.95;8.90;;;;;;;;;;5058625;28;20061;-88
2022/06/23 06:54:06;;;;;;;11.10;9.15;;;;;;;;;;5056872;28;20053;-87
2022/06/23 06:56:32;;;;;;;12.57;9.68;;;;;;;;;;5042333;28;20089;-85
2022/06/23 06:59:12;;;;;;;10.00;8.93;;;;;;;;;;5055585;28;20456;-88
2022/06/23 07:01:39;;;;;;;11.48;9.43;;;;;;;;;;5055398;28;20049;-87
2022/06/23 07:04:09;;;;;;;11.35;8.95;;;;;;;;;;5055248;28;20073;-86
2022/06/23 07:06:43;;;;;;;10.65;8.75;;;;;;;;;;5053396;28;20553;-87
2022/06/23 07:09:15;;;;;;;10.40;9.30;;;;;;;;;;5041416;28;20312;-86
2022/06/23 07:11:45;;;;;;;10.55;8.88;;;;;;;;;;5035589;28;20042;-86
2022/06/23 07:14:14;;;;;;;13.00;9.60;;;;;;;;;;5041585;28;20037;-87
2022/06/23 07:16:45;;;;;;;10.68;9.52;;;;;;;;;;5047450;28;20124;-87
2022/06/23 07:19:21;;;;;;;10.27;8.90;;;;;;;;;;5040816;28;20041;-86
2022/06/23 07:21:47;;;;;;;;;;;;;;;;;;5039284;28;20049;-87
2022/06/23 07:24:17;;;;;;;10.75;9.30;;;;;;;;;;5053636;28;20337;-86
2022/06/23 07:26:49;;;;;;;13.27;9.73;;;;;;;;;;5057025;28;20500;-87
2022/06/23 07:29:26;;;;;;;14.23;9.88;;;;;;;;;;5051637;28;20040;-87
2022/06/23 07:31:58;;;;;;;10.95;9.38;;;;;;;;;;5057762;28;20535;-87
2022/06/23 07:34:26;;;;;;;9.73;8.77;;;;;;;;;;5055015;28;20064;-91
2022/06/23 07:36:59;;;;;;;11.10;9.90;;;;;;;;;;5054478;28;20088;-89
2022/06/23 07:39:43;;;;;;;11.02;9.57;;;;;;;;;;5055853;28;20044;-89
2022/06/23 07:42:19;;;;;;;10.68;9.57;;;;;;;;;;5055931;28;20059;-87
2022/06/23 07:44:45;;;;;;;;;;;;;;;;;;5053702;28;20151;-88
2022/06/23 07:47:11;;;;;;;13.40;9.48;;;;;;;;;;5055882;28;19921;-88
2022/06/23 07:49:37;;;;;;;12.20;10.82;;;;;;;;;;5055014;28;20112;-88
2022/06/23 07:52:04;;;;;;;11.75;9.65;;;;;;;;;;5037682;28;20048;-88
2022/06/23 07:54:30;;;;;;;12.60;10.13;;;;;;;;;;5056844;28;20045;-87
2022/06/23 07:56:56;;;;;;;10.82;9.73;;;;;;;;;;5029907;28;20484;-87
2022/06/23 07:59:24;;;;;;;12.07;9.80;;;;;;;;;;5055534;28;20051;-88
2022/06/23 08:02:04;;;;;;;13.23;9.70;;;;;;;;;;5038564;28;20462;-86
2022/06/23 08:04:39;;;;;;;10.98;9.88;;;;;;;;;;5055444;28;20053;-87
2022/06/23 08:07:08;;;;;;;13.07;9.65;;;;;;;;;;5055638;28;20056;-86
2022/06/23 08:09:40;;;;;;;10.77;9.15;;;;;;;;;;5037428;28;20057;-89
2022/06/23 08:17:45;;;;;;;12.10;9.75;;;;;;;;;;5040707;28;20052;-86
2022/06/23 08:20:12;;;;;;;13.50;9.68;;;;;;;;;;5036751;28;20045;-87
2022/06/23 08:22:41;;;;;;;13.38;9.45;;;;;;;;;;5037134;28;20127;-89
2022/06/23 08:25:08;;;;;;;10.52;9.40;;;;;;;;;;5055861;28;20060;-87
2022/06/23 08:27:34;;;;;;;9.95;8.85;;;;;;;;;;5036639;28;20432;-87
2022/06/23 08:30:03;;;;;;;9.77;8.63;;;;;;;;;;5054182;28;20399;-87
2022/06/23 08:32:30;;;;;;;10.68;9.48;;;;;;;;;;5035916;28;20052;-87
2022/06/23 08:34:59;;;;;;;10.50;9.40;;;;;;;;;;5051599;28;20053;-88
2022/06/23 08:37:25;;;;;;;11.40;8.43;;;;;;;;;;5036304;28;20576;-88
2022/06/23 08:40:00;;;;;;;11.35;8.18;;;;;;;;;;5037161;28;20412;-88
2022/06/23 08:42:33;;;;;;;12.02;8.63;;;;;;;;;;5038520;28;20094;-87
2022/06/23 08:45:14;;;;;;;11.55;7.97;;;;;;;;;;5039018;28;20130;-87
2022/06/23 08:47:49;;;;;;;8.77;7.95;;;;;;;;;;5037093;28;20094;-87
2022/06/23 08:50:31;;;;;;;10.35;8.13;;;;;;;;;;5040511;28;20122;-88
2022/06/23 08:53:01;;;;;;;9.60;8.43;;;;;;;;;;5053264;28;20064;-87
2022/06/23 08:55:30;;;;;;;10.13;7.80;;;;;;;;;;5052529;28;20080;-88
2022/06/23 08:57:56;;;;;;;8.77;7.88;;;;;;;;;;5053918;28;20424;-87
2022/06/23 09:00:25;;;;;;;8.95;7.15;;;;;;;;;;5055029;28;20503;-88
2022/06/23 09:02:57;;;;;;;8.38;7.55;;;;;;;;;;5052855;28;20044;-90
2022/06/23 09:05:33;;;;;;;9.05;7.95;;;;;;;;;;5036403;28;20128;-90
2022/06/23 09:08:07;;;;;;;8.10;7.28;;;;;;;;;;5054649;28;20502;-88
2022/06/23 09:10:39;;;;;;;8.55;7.28;;;;;;;;;;5053104;28;20106;-88
2022/06/23 09:13:24;;;;;;;9.45;6.95;;;;;;;;;;5052812;28;20120;-88
2022/06/23 09:15:50;;;;;;;8.60;7.43;;;;;;;;;;5053765;28;20124;-90
2022/06/23 09:18:27;;;;;;;8.35;7.18;;;;;;;;;;5053193;28;20068;-87
2022/06/23 09:20:53;;;;;;;8.30;7.03;;;;;;;;;;5057793;28;20048;-87
2022/06/23 09:23:31;;;;;;;9.07;6.70;;;;;;;;;;5061109;28;21606;-89
2022/06/23 09:26:00;;;;;;;8.45;6.78;;;;;;;;;;5034969;28;20079;-88
2022/06/23 09:28:29;;;;;;;7.43;6.72;;;;;;;;;;5060244;28;20166;-88
2022/06/23 09:31:07;;;;;;;9.95;7.40;;;;;;;;;;5059625;28;20103;-88
2022/06/23 09:33:56;;;;;;;10.10;7.20;;;;;;;;;;5061528;28;20037;-88
2022/06/23 09:36:41;;;;;;;7.32;6.63;;;;;;;;;;5060897;28;20041;-88
2022/06/23 09:39:35;;;;;;;7.75;6.38;;;;;;;;;;5064730;28;20049;-88
2022/06/23 09:42:01;;;;;;;7.90;6.63;;;;;;;;;;5059613;28;20075;-90
2022/06/23 09:44:45;;;;;;;7.07;5.80;;;;;;;;;;5060698;28;20131;-90
2022/06/23 09:47:31;;;;;;;7.70;6.88;;;;;;;;;;5064291;28;20326;-89
2022/06/23 09:49:57;;;;;;;7.10;6.40;;;;;;;;;;5065682;28;20491;-89
2022/06/23 09:52:32;;;;;;;9.10;6.55;;;;;;;;;;5064932;28;20416;-87
2022/06/23 09:54:58;;;;;;;9.38;7.07;;;;;;;;;;5048380;28;20038;-88
2022/06/23 09:57:43;;;;;;;6.75;6.05;;;;;;;;;;5053861;28;20052;-89
2022/06/23 10:00:20;;;;;;;7.60;6.32;;;;;;;;;;5046735;28;20052;-89
2022/06/23 10:03:09;;;;;;;7.18;6.20;;;;;;;;;;5068337;28;20094;-90
2022/06/23 10:05:51;;;;;;;6.22;5.63;;;;;;;;;;5059024;28;20139;-90
2022/06/23 10:08:23;;;;;;;6.18;5.53;;;;;;;;;;5062100;28;20102;-86
2022/06/23 10:11:08;;;;;;;6.35;5.72;;;;;;;;;;5063240;28;20131;-86
2022/06/23 10:13:34;;;;;;;6.63;5.20;;;;;;;;;;5058262;28;20038;-89
2022/06/23 10:16:03;;;;;;;7.72;5.95;;;;;;;;;;5044923;28;20037;-88
2022/06/23 10:18:35;;;;;;;6.72;6.03;;;;;;;;;;5044933;28;20037;-91
2022/06/23 10:21:09;;;;;;;7.57;4.90;;;;;;;;;;5045060;28;20049;-87
2022/06/23 10:23:47;;;;;;;6.55;5.60;;;;;;;;;;5050411;28;20044;-88
2022/06/23 10:26:32;;;;;;;6.60;5.30;;;;;;;;;;5062591;28;20049;-87
2022/06/23 10:29:01;;;;;;;7.03;5.50;;;;;;;;;;5064354;28;20045;-88
2022/06/23 10:31:40;;;;;;;6.28;5.50;;;;;;;;;;5069037;28;20049;-88
2022/06/23 10:34:15;;;;;;;5.53;4.97;;;;;;;;;;5060075;28;20037;-88
2022/06/23 10:37:08;;;;;;;7.38;4.38;;;;;;;;;;5058042;28;20045;-89
2022/06/23 10:39:40;;;;;;;7.38;4.95;;;;;;;;;;5055636;28;20056;-87
2022/06/23 10:42:15;;;;;;;5.10;4.60;;;;;;;;;;5063055;28;20524;-88
2022/06/23 10:44:57;;;;;;;6.20;5.40;;;;;;;;;;5051204;28;20515;-89
2022/06/23 10:47:35;;;;;;;5.57;4.97;;;;;;;;;;5044052;28;20041;-88
2022/06/23 10:50:01;;;;;;;6.18;4.70;;;;;;;;;;5060163;28;20144;-88
2022/06/23 10:52:46;;;;;;;6.47;4.80;;;;;;;;;;5061022;28;20076;-87
2022/06/23 10:55:22;;;;;;;7.57;4.70;;;;;;;;;;5042269;28;20564;-88
2022/06/23 10:58:01;;;;;;;5.35;4.55;;;;;;;;;;5027654;28;20562;-87
2022/06/23 11:00:36;;;;;;;6.38;4.95;;;;;;;;;;5057719;28;20483;-88
2022/06/23 11:03:02;;;;;;;6.35;4.90;;;;;;;;;;5061464;28;20074;-88
2022/06/23 11:05:40;;;;;;;5.95;4.57;;;;;;;;;;5041536;28;20124;-89
2022/06/23 11:08:25;;;;;;;6.38;4.20;;;;;;;;;;5056056;28;20045;-87
2022/06/23 11:10:53;;;;;;;5.63;4.68;;;;;;;;;;5043323;28;20100;-88
2022/06/23 11:13:40;;;;;;;6.15;4.60;;;;;;;;;;5027794;28;20041;-87
2022/06/23 11:16:25;;;;;;;6.75;4.50;;;;;;;;;;5040305;28;20105;-86
2022/06/23 11:19:06;;;;;;;6.65;4.63;;;;;;;;;;5060639;28;20064;-88
2022/06/23 11:21:41;;;;;;;6.13;4.40;;;;;;;;;;5060175;28;20444;-86
2022/06/23 11:24:23;;;;;;;5.53;4.55;;;;;;;;;;5046188;28;20041;-89
2022/06/23 11:27:01;;;;;;;5.75;4.55;;;;;;;;;;5062306;28;20051;-89
2022/06/23 11:29:38;;;;;;;6.20;4.25;;;;;;;;;;5042581;28;20045;-87
2022/06/23 11:32:04;;;;;;;7.43;4.30;;;;;;;;;;5047508;28;20045;-90
2022/06/23 11:34:49;;;;;;;4.32;3.70;;;;;;;;;;5065290;28;20051;-86
2022/06/23 11:37:18;;;;;;;6.40;4.13;;;;;;;;;;5043248;28;20503;-90
2022/06/23 11:39:56;;;;;;;7.32;4.18;;;;;;;;;;5059051;28;20056;-88
2022/06/23 11:42:46;;;;;;;4.97;4.05;;;;;;;;;;5043199;28;20056;-89
2022/06/23 11:45:31;;;;;;;4.00;3.60;;;;;;;;;;5043551;28;20139;-84
2022/06/23 11:48:23;;;;;;;6.60;4.00;;;;;;;;;;5060517;28;20105;-87
2022/06/23 11:50:55;;;;;;;5.45;3.95;;;;;;;;;;5051827;28;20049;-86
2022/06/23 11:53:43;;;;;;;5.43;3.80;;;;;;;;;;5064217;28;20052;-88
2022/06/23 11:56:14;;;;;;;5.00;3.67;;;;;;;;;;5039358;28;20044;-87
2022/06/23 11:58:57;;;;;;;7.93;3.63;;;;;;;;;;5059456;28;20061;-87
2022/06/23 12:01:23;;;;;;;5.38;4.07;;;;;;;;;;5043492;28;20052;-91
2022/06/23 12:04:08;;;;;;;5.18;3.72;;;;;;;;;;5039953;28;20052;-90
2022/06/23 12:06:53;;;;;;;5.77;4.17;;;;;;;;;;5058391;28;20040;-88
2022/06/23 12:09:37;;;;;;;5.07;3.83;;;;;;;;;;5056761;28;20057;-88
2022/06/23 12:12:07;;;;;;;4.57;3.85;;;;;;;;;;5040236;28;20095;-90
2022/06/23 12:14:34;;;;;;;4.85;3.70;;;;;;;;;;5043536;28;20041;-93
2022/06/23 12:17:04;;;;;;;4.55;3.58;;;;;;;;;;5028818;28;20052;-89
2022/06/23 12:19:38;;;;;;;6.57;3.58;;;;;;;;;;5044265;28;20056;-90
2022/06/23 12:22:12;;;;;;;5.60;3.92;;;;;;;;;;5043489;28;20072;-87
2022/06/23 12:24:48;;;;;;;8.35;3.97;;;;;;;;;;5043319;28;20106;-91
2022/06/23 12:27:21;;;;;;;4.25;3.45;;;;;;;;;;5058539;28;20047;-92
2022/06/23 12:30:01;;;;;;;7.18;3.95;;;;;;;;;;5057346;28;20041;-91
2022/06/23 12:32:47;;;;;;;5.95;3.90;;;;;;;;;;5023999;28;20041;-90
2022/06/23 12:35:13;;;;;;;;;;;;;;;;;;5041464;28;20052;-92
2022/06/23 12:37:55;;;;;;;6.00;4.35;;;;;;;;;;5042639;28;19920;-89
2022/06/23 12:40:41;;;;;;;4.50;3.80;;;;;;;;;;5041367;28;20079;-90
2022/06/23 12:43:07;;;;;;;4.47;3.80;;;;;;;;;;5061609;28;20048;-90
2022/06/23 12:45:54;;;;;;;7.03;4.13;;;;;;;;;;5040226;28;20037;-91
2022/06/23 12:48:20;;;;;;;4.85;3.80;;;;;;;;;;5058558;28;20041;-91
2022/06/23 12:50:51;;;;;;;5.78;4.28;;;;;;;;;;5051620;28;20396;-88
2022/06/23 12:53:29;;;;;;;5.18;3.85;;;;;;;;;;5060951;28;20514;-92
2022/06/23 12:55:58;;;;;;;8.23;4.43;;;;;;;;;;5058120;28;20051;-87
2022/06/23 12:58:28;;;;;;;4.85;4.28;;;;;;;;;;5056865;28;20037;-89
2022/06/23 13:01:15;;;;;;;7.28;4.15;;;;;;;;;;5059152;28;20060;-87
2022/06/23 13:04:02;;;;;;;4.82;3.92;;;;;;;;;;5039550;28;20132;-88
2022/06/23 13:06:47;;;;;;;5.78;4.00;;;;;;;;;;5040281;28;20042;-89
2022/06/23 13:09:33;;;;;;;5.33;4.10;;;;;;;;;;5054927;28;20496;-89
2022/06/23 13:12:04;;;;;;;7.03;4.50;;;;;;;;;;5030949;28;20109;-87
2022/06/23 13:14:49;;;;;;;5.18;4.38;;;;;;;;;;5063406;28;20056;-90
2022/06/23 13:17:36;;;;;;;5.80;3.90;;;;;;;;;;5056831;28;20105;-88
2022/06/23 13:20:09;;;;;;;4.68;4.18;;;;;;;;;;5053937;28;20061;-88
2022/06/23 13:22:50;;;;;;;5.47;3.90;;;;;;;;;;5045975;28;20052;-87
2022/06/23 13:25:28;;;;;;;4.57;4.00;;;;;;;;;;5059942;28;20049;-90
2022/06/23 13:27:55;;;;;;;7.65;3.90;;;;;;;;;;5060053;28;20072;-91
2022/06/23 13:30:24;;;;;;;5.00;3.92;;;;;;;;;;5055701;28;20045;-90
2022/06/23 13:32:59;;;;;;;5.18;3.90;;;;;;;;;;5060658;28;20101;-91
2022/06/23 13:35:32;;;;;;;5.85;3.95;;;;;;;;;;5057402;28;20045;-88
2022/06/23 13:38:05;;;;;;;5.18;3.75;;;;;;;;;;5058008;28;20196;-88
2022/06/23 13:40:31;;;;;;;6.85;3.70;;;;;;;;;;5059235;28;20050;-88
2022/06/23 13:43:25;;;;;;;4.97;3.55;;;;;;;;;;5053909;28;20059;-90
2022/06/23 13:45:55;;;;;;;6.47;3.97;;;;;;;;;;5056770;28;20049;-88
2022/06/23 13:48:31;;;;;;;4.30;3.60;;;;;;;;;;5054535;28;20037;-88
2022/06/23 13:51:10;;;;;;;6.28;3.83;;;;;;;;;;5055959;28;20111;-90
2022/06/23 13:53:36;;;;;;;4.80;3.20;;;;;;;;;;5058274;28;20436;-88
2022/06/23 13:56:02;;;;;;;4.80;3.35;;;;;;;;;;5045402;28;20507;-88
2022/06/23 13:58:39;;;;;;;4.03;3.63;;;;;;;;;;5054954;28;20041;-89
2022/06/23 14:01:09;;;;;;;4.53;3.80;;;;;;;;;;5058442;28;20049;-88
2022/06/23 14:03:41;;;;;;;5.68;3.45;;;;;;;;;;5061146;28;20415;-87
2022/06/23 14:06:15;;;;;;;7.82;3.85;;;;;;;;;;5057465;28;20133;-88
2022/06/23 14:08:50;;;;;;;4.65;3.80;;;;;;;;;;5060321;28;20054;-88
2022/06/23 14:11:23;;;;;;;5.13;3.47;;;;;;;;;;5056329;28;20076;-87
2022/06/23 14:13:54;;;;;;;5.70;3.55;;;;;;;;;;5056724;28;20404;-87
2022/06/23 14:16:43;;;;;;;4.45;3.35;;;;;;;;;;5055901;28;20040;-87
2022/06/23 14:19:16;;;;;;;6.95;3.60;;;;;;;;;;5046142;28;20053;-89
2022/06/23 14:22:02;;;;;;;5.28;3.40;;;;;;;;;;5037281;28;20084;-91
2022/06/23 14:24:38;;;;;;;5.38;3.58;;;;;;;;;;5038775;28;20134;-88
2022/06/23 14:27:04;;;;;;;6.10;3.38;;;;;;;;;;5042979;28;20048;-88
2022/06/23 14:29:48;;;;;;;3.95;3.30;;;;;;;;;;5056485;28;20041;-87
2022/06/23 14:32:21;;;;;;;5.05;3.28;;;;;;;;;;5061035;28;20055;-92
2022/06/23 14:34:59;;;;;;;7.43;3.50;;;;;;;;;;5063239;28;20057;-87
2022/06/23 14:37:49;;;;;;;3.70;3.30;;;;;;;;;;5066529;28;20090;-89
2022/06/23 14:40:20;;;;;;;3.92;3.30;;;;;;;;;;5058744;28;20049;-88
2022/06/23 14:42:46;;;;;;;6.50;3.40;;;;;;;;;;5058560;28;20049;-86
2022/06/23 14:45:15;;;;;;;5.22;3.38;;;;;;;;;;5061103;28;20488;-89
2022/06/23 14:47:44;;;;;;;6.07;3.83;;;;;;;;;;5063676;28;20076;-90
2022/06/23 14:50:22;;;;;;;5.72;3.50;;;;;;;;;;5062869;28;20037;-90
2022/06/23 14:53:01;;;;;;;5.15;3.50;;;;;;;;;;5062940;28;20049;-89
2022/06/23 14:55:46;;;;;;;4.30;3.50;;;;;;;;;;5053776;28;20041;-89
2022/06/23 14:58:24;;;;;;;3.70;3.40;;;;;;;;;;5065965;28;20041;-89
2022/06/23 15:00:50;;;;;;;4.03;3.50;;;;;;;;;;5057602;28;20052;-87
2022/06/23 15:03:42;;;;;;;3.90;3.50;;;;;;;;;;5047169;28;20124;-90
2022/06/23 15:06:08;;;;;;;5.07;3.33;;;;;;;;;;5049661;28;20380;-89
2022/06/23 15:08:40;;;;;;;4.28;3.78;;;;;;;;;;5068279;28;20033;-91
2022/06/23 15:11:35;;;;;;;4.13;3.50;;;;;;;;;;5056735;28;20056;-91
2022/06/23 15:14:08;;;;;;;4.82;3.38;;;;;;;;;;5053196;28;20512;-89
2022/06/23 15:16:38;;;;;;;6.32;3.70;;;;;;;;;;5051860;28;20040;-87
2022/06/23 15:19:26;;;;;;;4.10;3.38;;;;;;;;;;5068435;28;20048;-89
2022/06/23 15:24:52;;;;;;;4.25;3.80;;;;;;;;;;5051668;28;20025;-91
2022/06/23 15:27:31;;;;;;;5.28;3.30;;;;;;;;;;5049368;28;20072;-90
2022/06/23 15:30:01;;;;;;;7.88;3.60;;;;;;;;;;5056392;28;20044;-88
2022/06/23 15:32:27;;;;;;;4.00;3.60;;;;;;;;;;5063735;28;20079;-90
2022/06/23 15:34:59;;;;;;;5.05;3.53;;;;;;;;;;5063656;28;20048;-92